createdAt,value
2022-09-16T00:04:33.811Z,25.60
2022-09-16T00:09:27.062Z,25.58
2022-09-16T00:14:20.145Z,25.79
2022-09-16T00:19:13.596Z,25.87
2022-09-16T00:24:08.510Z,25.85
2022-09-16T00:29:01.772Z,25.94
2022-09-16T00:33:54.876Z,26.04
2022-09-16T00:38:52.528Z,25.00
2022-09-16T00:43:51.862Z,25.52
2022-09-16T00:48:45.352Z,25.28
2022-09-16T00:53:45.664Z,25.29
2022-09-16T00:58:47.035Z,25.42
2022-09-16T01:03:46.940Z,25.53
2022-09-16T01:08:40.551Z,25.26
2022-09-16T01:13:33.745Z,25.86
2022-09-16T01:18:38.645Z,26.02
2022-09-16T01:24:11.253Z,26.20
2022-09-16T01:29:25.663Z,26.39
2022-09-16T01:34:28.473Z,26.72
2022-09-16T01:39:31.201Z,26.94
2022-09-16T01:44:30.213Z,27.10
2022-09-16T01:49:35.377Z,27.07
2022-09-16T01:54:35.171Z,27.17
2022-09-16T01:59:35.746Z,27.13
2022-09-16T02:04:36.256Z,27.33
2022-09-16T02:09:34.876Z,27.24
2022-09-16T02:14:31.410Z,27.19
2022-09-16T02:19:27.805Z,26.75
2022-09-16T02:24:23.838Z,27.02
2022-09-16T02:29:24.646Z,27.11
2022-09-16T02:34:25.954Z,26.83
2022-09-16T02:39:27.902Z,26.78
2022-09-16T02:44:25.683Z,26.58
2022-09-16T02:49:27.793Z,26.45
2022-09-16T02:54:27.298Z,26.34
2022-09-16T02:59:20.536Z,26.19
2022-09-16T03:04:16.716Z,25.92
2022-09-16T03:09:12.368Z,25.70
2022-09-16T03:14:31.106Z,25.81
2022-09-16T03:19:31.649Z,25.42
2022-09-16T03:24:37.935Z,25.75
2022-09-16T03:29:45.712Z,25.79
2022-09-16T03:34:43.799Z,25.78
2022-09-16T03:39:38.155Z,25.73
2022-09-16T03:44:37.149Z,25.47
2022-09-16T03:49:30.810Z,25.81
2022-09-16T03:54:25.503Z,25.53
2022-09-16T03:59:19.043Z,25.88
2022-09-16T04:04:16.788Z,26.12
2022-09-16T04:09:17.077Z,25.88
2022-09-16T04:14:11.176Z,26.23
2022-09-16T04:19:05.534Z,25.93
2022-09-16T04:24:03.236Z,26.22
2022-09-16T04:28:59.219Z,26.30
2022-09-16T04:33:52.380Z,26.35
2022-09-16T04:38:47.551Z,25.82
2022-09-16T04:43:42.844Z,26.23
2022-09-16T04:48:36.207Z,25.98
2022-09-16T04:53:32.164Z,25.91
2022-09-16T04:58:25.441Z,25.79
2022-09-16T05:03:20.057Z,26.18
2022-09-16T05:08:13.321Z,25.86
2022-09-16T05:13:09.650Z,25.56
2022-09-16T05:18:02.936Z,26.22
2022-09-16T05:22:57.498Z,26.34
2022-09-16T05:27:50.623Z,26.21
2022-09-16T05:32:43.947Z,26.32
2022-09-16T05:37:37.089Z,26.02
2022-09-16T05:42:32.104Z,26.20
2022-09-16T05:47:25.628Z,25.85
2022-09-16T05:52:19.060Z,25.54
2022-09-16T05:57:12.707Z,25.59
2022-09-16T06:02:07.902Z,26.54
2022-09-16T06:07:02.232Z,26.30
2022-09-16T06:12:02.372Z,26.04
2022-09-16T06:16:55.692Z,26.24
2022-09-16T06:21:52.036Z,26.08
2022-09-16T06:26:46.575Z,25.89
2022-09-16T06:31:40.300Z,26.63
2022-09-16T06:36:35.701Z,26.60
2022-09-16T06:41:32.404Z,26.29
2022-09-16T06:46:27.349Z,26.69
2022-09-16T06:51:23.185Z,26.35
2022-09-16T06:56:18.253Z,26.72
2022-09-16T07:01:15.492Z,26.29
2022-09-16T07:06:09.686Z,26.98
2022-09-16T07:11:04.991Z,27.34
2022-09-16T07:16:12.920Z,26.98
2022-09-16T07:21:10.742Z,27.19
2022-09-16T07:26:06.584Z,27.77
2022-09-16T07:31:02.561Z,27.65
2022-09-16T07:36:07.574Z,27.28
2022-09-16T07:41:08.137Z,27.80
2022-09-16T07:46:03.765Z,28.24
2022-09-16T07:50:58.254Z,28.41
2022-09-16T07:55:53.630Z,28.49
2022-09-16T08:00:49.916Z,28.51
2022-09-16T08:05:51.851Z,28.05
2022-09-16T08:10:51.509Z,28.46
2022-09-16T08:15:44.886Z,29.18
2022-09-16T08:20:39.980Z,29.74
2022-09-16T08:25:33.318Z,29.64
2022-09-16T08:30:26.580Z,30.03
2022-09-16T08:35:20.304Z,29.82
2022-09-16T08:45:28.951Z,31.16
2022-09-16T08:50:30.155Z,31.76
2022-09-16T08:55:31.789Z,32.77
2022-09-16T09:00:25.162Z,32.84
2022-09-16T09:05:25.375Z,32.19
2022-09-16T09:10:27.236Z,32.22
2022-09-16T09:15:41.024Z,32.93
2022-09-16T09:20:46.503Z,32.82
2022-09-16T09:25:50.459Z,32.72
2022-09-16T09:30:53.873Z,31.82
2022-09-16T09:36:05.857Z,32.13
2022-09-16T09:41:12.223Z,32.20
2022-09-16T09:46:16.260Z,32.19
2022-09-16T09:51:29.050Z,32.23
2022-09-16T09:56:31.789Z,32.55
2022-09-16T10:01:25.378Z,32.63
2022-09-16T10:06:23.207Z,32.31
2022-09-16T10:11:19.417Z,32.47
2022-09-16T10:16:18.467Z,32.95
2022-09-16T10:21:14.564Z,32.48
2022-09-16T10:26:26.630Z,33.21
2022-09-16T10:31:21.551Z,32.96
2022-09-16T10:36:22.541Z,33.07
2022-09-16T10:41:18.176Z,33.07
2022-09-16T10:46:16.053Z,33.49
2022-09-16T10:51:23.990Z,32.87
2022-09-16T10:56:19.861Z,32.83
2022-09-16T11:01:29.929Z,33.44
2022-09-16T11:06:37.092Z,33.18
2022-09-16T11:11:47.879Z,33.75
2022-09-16T11:16:59.804Z,33.64
2022-09-16T11:22:12.329Z,33.96
2022-09-16T11:27:20.150Z,34.33
2022-09-16T11:32:29.513Z,35.55
2022-09-16T11:37:31.498Z,36.17
2022-09-16T11:42:35.153Z,37.42
2022-09-16T11:47:55.303Z,38.03
2022-09-16T11:53:24.874Z,37.46
2022-09-16T11:58:33.461Z,38.04
2022-09-16T12:03:40.955Z,37.28
2022-09-16T12:08:44.335Z,36.19
2022-09-16T12:13:41.106Z,35.11
2022-09-16T12:18:38.704Z,34.13
2022-09-16T12:23:37.327Z,33.31
2022-09-16T12:28:35.965Z,33.23
2022-09-16T12:33:34.848Z,32.93
2022-09-16T12:38:31.163Z,32.17
2022-09-16T12:43:48.069Z,32.71
2022-09-16T12:48:59.343Z,32.47
2022-09-16T12:54:18.452Z,31.90
2022-09-16T12:59:34.391Z,32.08
2022-09-16T13:04:32.537Z,31.76
2022-09-16T13:09:31.103Z,31.49
2022-09-16T13:14:25.586Z,31.75
2022-09-16T13:19:44.618Z,31.71
2022-09-16T13:24:45.627Z,31.51
2022-09-16T13:29:44.842Z,31.46
2022-09-16T13:34:38.116Z,31.04
2022-09-16T13:39:34.897Z,31.04
2022-09-16T13:44:42.332Z,30.66
2022-09-16T13:49:44.594Z,30.18
2022-09-16T13:55:06.277Z,30.21
2022-09-16T14:00:15.409Z,29.70
2022-09-16T14:05:43.022Z,30.30
2022-09-16T14:10:49.222Z,30.30
2022-09-16T14:15:45.355Z,30.39
2022-09-16T14:20:38.641Z,30.33
2022-09-16T14:25:43.030Z,29.81
2022-09-16T14:30:39.352Z,30.45
2022-09-16T14:35:32.655Z,30.41
2022-09-16T14:40:29.099Z,30.38
2022-09-16T14:45:24.144Z,29.75
2022-09-16T14:50:30.289Z,29.35
2022-09-16T15:01:00.278Z,29.94
2022-09-16T15:05:56.497Z,29.95
2022-09-16T15:10:56.504Z,29.55
2022-09-16T15:15:54.576Z,29.04
2022-09-16T15:20:53.729Z,29.66
2022-09-16T15:25:54.789Z,28.96
2022-09-16T15:30:54.261Z,29.55
2022-09-16T15:36:30.089Z,28.51
2022-09-16T15:41:26.232Z,28.96
2022-09-16T15:46:25.293Z,28.65
2022-09-16T15:51:29.360Z,29.24
2022-09-16T15:56:30.231Z,28.58
2022-09-16T16:01:38.889Z,28.73
2022-09-16T16:06:52.261Z,28.27
2022-09-16T16:11:46.974Z,28.89
2022-09-16T16:16:55.489Z,28.83
2022-09-16T16:21:54.973Z,28.67
2022-09-16T16:26:52.626Z,28.32
2022-09-16T16:32:10.124Z,28.09
2022-09-16T16:37:06.341Z,28.40
2022-09-16T16:42:05.186Z,28.15
2022-09-16T16:46:58.485Z,28.03
2022-09-16T16:51:52.971Z,27.79
2022-09-16T16:56:46.889Z,27.64
2022-09-16T17:01:46.567Z,27.93
2022-09-16T17:06:41.762Z,27.67
2022-09-16T17:11:35.859Z,27.60
2022-09-16T17:16:30.884Z,27.50
2022-09-16T17:21:27.270Z,27.65
2022-09-16T17:26:21.652Z,27.31
2022-09-16T17:31:17.171Z,27.48
2022-09-16T17:36:17.339Z,27.08
2022-09-16T17:41:17.179Z,26.87
2022-09-16T17:46:22.599Z,27.41
2022-09-16T17:51:17.047Z,26.72
2022-09-16T17:56:13.699Z,26.57
2022-09-16T18:01:08.729Z,26.67
2022-09-16T18:06:11.769Z,26.53
2022-09-16T18:11:05.761Z,26.26
2022-09-16T18:16:05.491Z,26.73
2022-09-16T18:21:01.735Z,26.75
2022-09-16T18:25:55.011Z,26.37
2022-09-16T18:30:48.233Z,26.71
2022-09-16T18:35:45.808Z,26.25
2022-09-16T18:40:39.699Z,26.64
2022-09-16T18:45:33.055Z,26.32
2022-09-16T18:50:26.208Z,26.27
2022-09-16T18:55:21.259Z,26.14
2022-09-16T19:00:15.114Z,26.04
2022-09-16T19:05:10.786Z,26.85
2022-09-16T19:10:04.683Z,26.03
2022-09-16T19:15:00.170Z,26.56
2022-09-16T19:19:53.679Z,26.08
2022-09-16T19:24:47.446Z,26.11
2022-09-16T19:29:40.618Z,26.14
2022-09-16T19:34:37.596Z,25.52
2022-09-16T19:39:32.217Z,25.41
2022-09-16T19:44:25.476Z,25.90
2022-09-16T19:49:21.205Z,25.63
2022-09-16T19:54:24.221Z,25.60
2022-09-16T19:59:17.919Z,25.49
2022-09-16T20:04:11.249Z,25.84
2022-09-16T20:09:07.647Z,25.80
2022-09-16T20:14:06.762Z,25.62
2022-09-16T20:18:59.961Z,25.74
2022-09-16T20:23:57.112Z,25.24
2022-09-16T20:28:52.043Z,25.71
2022-09-16T20:33:46.681Z,24.92
2022-09-16T20:38:43.462Z,25.56
2022-09-16T20:43:59.729Z,25.03
2022-09-16T20:48:58.149Z,25.25
2022-09-16T20:53:57.559Z,24.90
2022-09-16T20:58:50.634Z,25.16
2022-09-16T21:03:44.696Z,24.96
2022-09-16T21:08:39.947Z,24.67
2022-09-16T21:13:33.450Z,24.78
2022-09-16T21:18:57.502Z,24.66
2022-09-16T21:23:53.251Z,24.06
2022-09-16T21:28:49.218Z,23.48
2022-09-16T21:33:53.555Z,23.70
2022-09-16T21:39:09.204Z,24.01
2022-09-16T21:44:03.912Z,24.20
2022-09-16T21:49:01.360Z,23.74
2022-09-16T21:53:56.204Z,23.60
2022-09-16T21:58:51.122Z,23.97
2022-09-16T22:03:45.799Z,23.85
2022-09-16T22:08:39.106Z,23.71
2022-09-16T22:13:34.611Z,23.54
2022-09-16T22:18:29.921Z,23.33
2022-09-16T22:23:23.190Z,23.26
2022-09-16T22:28:16.355Z,23.29
2022-09-16T22:33:10.961Z,22.74
2022-09-16T22:38:04.890Z,22.67
2022-09-16T22:43:22.098Z,22.17
2022-09-16T22:48:24.613Z,22.57
2022-09-16T22:53:20.203Z,22.51
2022-09-16T22:58:13.354Z,22.49
2022-09-16T23:03:06.421Z,22.46
2022-09-16T23:08:01.092Z,22.82
2022-09-16T23:12:54.455Z,22.67
2022-09-16T23:17:47.791Z,23.10
2022-09-16T23:22:40.934Z,23.01
2022-09-16T23:27:42.266Z,22.91
2022-09-16T23:32:35.546Z,22.57
2022-09-16T23:37:30.642Z,23.05
2022-09-16T23:42:23.888Z,23.01
2022-09-16T23:47:18.477Z,22.36
2022-09-16T23:52:11.886Z,22.83
2022-09-16T23:57:05.151Z,22.31
